sensor_id;sensor_type;location;lat;lon;timestamp;pressure;altitude;pressure_sealevel;temperature;humidity
10992;BME280;5549;47.028;15.514;2023-12-07T00:00:49;96419.31;;;3.28;78.01
10992;BME280;5549;47.028;15.514;2023-12-07T00:03:21;96419.91;;;3.33;77.44
10992;BME280;5549;47.028;15.514;2023-12-07T00:05:51;96418.06;;;3.35;77.43
10992;BME280;5549;47.028;15.514;2023-12-07T00:08:19;96426.19;;;3.29;77.52
10992;BME280;5549;47.028;15.514;2023-12-07T00:10:47;96419.16;;;3.31;77.05
10992;BME280;5549;47.028;15.514;2023-12-07T00:13:14;96419.50;;;3.25;76.99
10992;BME280;5549;47.028;15.514;2023-12-07T00:15:42;96416.72;;;3.28;77.04
10992;BME280;5549;47.028;15.514;2023-12-07T00:18:14;96413.97;;;3.31;76.53
10992;BME280;5549;47.028;15.514;2023-12-07T00:20:43;96424.16;;;3.34;76.60
10992;BME280;5549;47.028;15.514;2023-12-07T00:23:20;96417.47;;;3.30;76.19
10992;BME280;5549;47.028;15.514;2023-12-07T00:25:50;96417.31;;;3.33;75.66
10992;BME280;5549;47.028;15.514;2023-12-07T00:28:19;96420.81;;;3.32;75.47
10992;BME280;5549;47.028;15.514;2023-12-07T00:30:47;96421.53;;;3.20;75.62
10992;BME280;5549;47.028;15.514;2023-12-07T00:33:16;96433.75;;;3.18;75.62
10992;BME280;5549;47.028;15.514;2023-12-07T00:35:44;96432.09;;;3.17;75.27
10992;BME280;5549;47.028;15.514;2023-12-07T00:38:14;96440.88;;;3.14;75.39
10992;BME280;5549;47.028;15.514;2023-12-07T00:40:43;96442.81;;;3.11;75.42
10992;BME280;5549;47.028;15.514;2023-12-07T00:43:11;96433.97;;;2.83;76.49
10992;BME280;5549;47.028;15.514;2023-12-07T00:45:39;96443.59;;;2.81;77.01
10992;BME280;5549;47.028;15.514;2023-12-07T00:48:06;96443.00;;;2.76;77.53
10992;BME280;5549;47.028;15.514;2023-12-07T00:50:36;96442.84;;;2.64;77.72
10992;BME280;5549;47.028;15.514;2023-12-07T00:53:06;96437.75;;;2.62;78.25
10992;BME280;5549;47.028;15.514;2023-12-07T00:55:35;96443.44;;;2.53;78.78
10992;BME280;5549;47.028;15.514;2023-12-07T00:58:02;96438.75;;;2.44;78.91
10992;BME280;5549;47.028;15.514;2023-12-07T01:00:32;96441.84;;;2.50;78.73
10992;BME280;5549;47.028;15.514;2023-12-07T01:03:00;96439.41;;;2.47;78.61
10992;BME280;5549;47.028;15.514;2023-12-07T01:05:30;96433.16;;;2.51;78.87
10992;BME280;5549;47.028;15.514;2023-12-07T01:07:59;96438.16;;;2.39;79.44
10992;BME280;5549;47.028;15.514;2023-12-07T01:10:26;96447.81;;;2.19;80.22
10992;BME280;5549;47.028;15.514;2023-12-07T01:12:54;96446.16;;;2.34;79.33
10992;BME280;5549;47.028;15.514;2023-12-07T01:15:25;96446.41;;;2.30;79.89
10992;BME280;5549;47.028;15.514;2023-12-07T01:17:52;96443.56;;;2.18;79.96
10992;BME280;5549;47.028;15.514;2023-12-07T01:20:20;96466.59;;;2.07;80.85
10992;BME280;5549;47.028;15.514;2023-12-07T01:22:48;96459.38;;;2.30;80.21
10992;BME280;5549;47.028;15.514;2023-12-07T01:25:17;96460.50;;;2.08;79.90
10992;BME280;5549;47.028;15.514;2023-12-07T01:27:48;96455.38;;;1.74;81.16
10992;BME280;5549;47.028;15.514;2023-12-07T01:30:17;96447.91;;;1.68;81.57
10992;BME280;5549;47.028;15.514;2023-12-07T01:32:44;96468.94;;;1.79;81.47
10992;BME280;5549;47.028;15.514;2023-12-07T01:35:12;96461.75;;;1.84;81.39
10992;BME280;5549;47.028;15.514;2023-12-07T01:37:40;96456.28;;;1.90;81.14
10992;BME280;5549;47.028;15.514;2023-12-07T01:40:09;96461.44;;;1.90;81.48
10992;BME280;5549;47.028;15.514;2023-12-07T01:42:38;96455.59;;;1.86;80.90
10992;BME280;5549;47.028;15.514;2023-12-07T01:45:07;96466.25;;;1.80;80.89
10992;BME280;5549;47.028;15.514;2023-12-07T01:47:36;96465.72;;;1.91;81.09
10992;BME280;5549;47.028;15.514;2023-12-07T01:50:06;96468.28;;;2.08;80.31
10992;BME280;5549;47.028;15.514;2023-12-07T01:52:37;96468.47;;;1.88;80.37
10992;BME280;5549;47.028;15.514;2023-12-07T01:55:08;96470.59;;;1.80;80.71
10992;BME280;5549;47.028;15.514;2023-12-07T01:57:38;96459.91;;;2.03;80.21
10992;BME280;5549;47.028;15.514;2023-12-07T02:00:09;96461.66;;;1.68;80.09
10992;BME280;5549;47.028;15.514;2023-12-07T02:02:44;96469.75;;;1.97;79.94
10992;BME280;5549;47.028;15.514;2023-12-07T02:05:15;96469.66;;;1.64;79.27
10992;BME280;5549;47.028;15.514;2023-12-07T02:07:46;96471.97;;;1.87;79.11
10992;BME280;5549;47.028;15.514;2023-12-07T02:10:15;96463.34;;;2.04;79.49
10992;BME280;5549;47.028;15.514;2023-12-07T02:12:45;96466.09;;;1.83;78.30
10992;BME280;5549;47.028;15.514;2023-12-07T02:15:14;96464.72;;;1.93;78.77
10992;BME280;5549;47.028;15.514;2023-12-07T02:18:06;96474.84;;;1.98;78.57
10992;BME280;5549;47.028;15.514;2023-12-07T02:20:41;96461.50;;;2.06;77.94
10992;BME280;5549;47.028;15.514;2023-12-07T02:23:12;96466.78;;;1.52;79.08
10992;BME280;5549;47.028;15.514;2023-12-07T02:28:57;96472.13;;;1.84;78.33
10992;BME280;5549;47.028;15.514;2023-12-07T02:31:25;96479.50;;;1.57;78.59
10992;BME280;5549;47.028;15.514;2023-12-07T02:33:52;96477.47;;;1.81;77.87
10992;BME280;5549;47.028;15.514;2023-12-07T02:36:22;96480.66;;;1.86;77.81
10992;BME280;5549;47.028;15.514;2023-12-07T02:38:52;96485.97;;;1.83;77.61
10992;BME280;5549;47.028;15.514;2023-12-07T02:41:24;96487.63;;;1.49;77.67
10992;BME280;5549;47.028;15.514;2023-12-07T02:43:53;96488.09;;;1.57;77.90
10992;BME280;5549;47.028;15.514;2023-12-07T02:46:22;96496.38;;;1.64;78.31
10992;BME280;5549;47.028;15.514;2023-12-07T02:48:49;96500.19;;;1.57;78.07
10992;BME280;5549;47.028;15.514;2023-12-07T02:51:18;96496.69;;;1.58;77.86
10992;BME280;5549;47.028;15.514;2023-12-07T02:53:46;96502.84;;;1.55;77.88
10992;BME280;5549;47.028;15.514;2023-12-07T02:56:16;96503.94;;;1.69;77.79
10992;BME280;5549;47.028;15.514;2023-12-07T02:58:44;96501.66;;;1.80;77.39
10992;BME280;5549;47.028;15.514;2023-12-07T03:01:12;96493.97;;;1.78;77.18
10992;BME280;5549;47.028;15.514;2023-12-07T03:03:41;96503.50;;;1.78;77.45
10992;BME280;5549;47.028;15.514;2023-12-07T03:06:09;96505.28;;;1.41;77.77
10992;BME280;5549;47.028;15.514;2023-12-07T03:08:37;96513.69;;;1.64;77.52
10992;BME280;5549;47.028;15.514;2023-12-07T03:11:06;96515.97;;;1.70;78.00
10992;BME280;5549;47.028;15.514;2023-12-07T03:13:35;96518.53;;;1.52;78.25
10992;BME280;5549;47.028;15.514;2023-12-07T03:16:08;96519.47;;;1.69;77.46
10992;BME280;5549;47.028;15.514;2023-12-07T03:18:41;96520.63;;;1.80;77.25
10992;BME280;5549;47.028;15.514;2023-12-07T03:21:10;96519.03;;;1.78;77.38
10992;BME280;5549;47.028;15.514;2023-12-07T03:23:37;96518.00;;;1.46;78.11
10992;BME280;5549;47.028;15.514;2023-12-07T03:26:07;96512.13;;;1.25;79.01
10992;BME280;5549;47.028;15.514;2023-12-07T03:28:38;96521.72;;;1.40;78.67
10992;BME280;5549;47.028;15.514;2023-12-07T03:31:09;96520.41;;;1.32;78.96
10992;BME280;5549;47.028;15.514;2023-12-07T03:33:37;96522.03;;;1.34;79.14
10992;BME280;5549;47.028;15.514;2023-12-07T03:36:07;96530.25;;;1.42;78.65
10992;BME280;5549;47.028;15.514;2023-12-07T03:38:43;96520.06;;;1.56;78.51
10992;BME280;5549;47.028;15.514;2023-12-07T03:41:11;96534.44;;;1.09;79.72
10992;BME280;5549;47.028;15.514;2023-12-07T03:43:39;96534.00;;;1.18;79.66
10992;BME280;5549;47.028;15.514;2023-12-07T03:46:07;96538.44;;;1.33;79.77
10992;BME280;5549;47.028;15.514;2023-12-07T03:48:35;96534.63;;;1.23;79.16
10992;BME280;5549;47.028;15.514;2023-12-07T03:51:05;96536.44;;;1.21;80.13
10992;BME280;5549;47.028;15.514;2023-12-07T03:53:33;96549.53;;;1.18;79.64
10992;BME280;5549;47.028;15.514;2023-12-07T03:56:08;96552.28;;;0.96;81.69
10992;BME280;5549;47.028;15.514;2023-12-07T03:58:38;96547.56;;;1.23;80.84
10992;BME280;5549;47.028;15.514;2023-12-07T04:01:05;96548.53;;;1.20;80.34
10992;BME280;5549;47.028;15.514;2023-12-07T04:03:33;96559.91;;;0.80;81.47
10992;BME280;5549;47.028;15.514;2023-12-07T04:06:01;96563.59;;;1.12;81.31
10992;BME280;5549;47.028;15.514;2023-12-07T04:08:33;96557.72;;;1.09;80.55
10992;BME280;5549;47.028;15.514;2023-12-07T04:11:02;96563.09;;;1.23;80.58
10992;BME280;5549;47.028;15.514;2023-12-07T04:13:29;96564.63;;;1.08;80.41
10992;BME280;5549;47.028;15.514;2023-12-07T04:15:57;96565.81;;;1.20;80.13
10992;BME280;5549;47.028;15.514;2023-12-07T04:18:24;96567.53;;;1.38;79.80
10992;BME280;5549;47.028;15.514;2023-12-07T04:20:52;96573.41;;;1.42;79.53
10992;BME280;5549;47.028;15.514;2023-12-07T04:23:20;96580.53;;;1.37;79.14
10992;BME280;5549;47.028;15.514;2023-12-07T04:25:50;96571.06;;;1.18;79.08
10992;BME280;5549;47.028;15.514;2023-12-07T04:28:18;96588.41;;;0.98;79.26
10992;BME280;5549;47.028;15.514;2023-12-07T04:30:47;96595.53;;;1.11;79.26
10992;BME280;5549;47.028;15.514;2023-12-07T04:33:15;96580.56;;;0.80;80.10
10992;BME280;5549;47.028;15.514;2023-12-07T04:35:44;96588.91;;;1.06;79.48
10992;BME280;5549;47.028;15.514;2023-12-07T04:38:12;96583.50;;;1.29;79.18
10992;BME280;5549;47.028;15.514;2023-12-07T04:40:40;96587.91;;;1.27;79.17
10992;BME280;5549;47.028;15.514;2023-12-07T04:43:11;96585.03;;;1.33;78.72
10992;BME280;5549;47.028;15.514;2023-12-07T04:45:38;96591.13;;;1.13;78.69
10992;BME280;5549;47.028;15.514;2023-12-07T04:48:06;96594.84;;;1.08;79.21
10992;BME280;5549;47.028;15.514;2023-12-07T04:50:34;96601.53;;;1.12;79.09
10992;BME280;5549;47.028;15.514;2023-12-07T04:53:02;96597.53;;;1.23;78.41
10992;BME280;5549;47.028;15.514;2023-12-07T04:55:29;96602.22;;;1.34;78.52
10992;BME280;5549;47.028;15.514;2023-12-07T04:57:58;96599.97;;;1.45;78.17
10992;BME280;5549;47.028;15.514;2023-12-07T05:00:28;96603.41;;;1.27;78.05
10992;BME280;5549;47.028;15.514;2023-12-07T05:02:56;96601.31;;;1.35;78.22
10992;BME280;5549;47.028;15.514;2023-12-07T05:05:26;96606.06;;;1.44;77.99
10992;BME280;5549;47.028;15.514;2023-12-07T05:07:56;96615.19;;;1.51;77.90
10992;BME280;5549;47.028;15.514;2023-12-07T05:10:23;96613.38;;;1.53;77.52
10992;BME280;5549;47.028;15.514;2023-12-07T05:12:51;96622.81;;;1.54;76.92
10992;BME280;5549;47.028;15.514;2023-12-07T05:15:19;96621.91;;;1.55;77.44
10992;BME280;5549;47.028;15.514;2023-12-07T05:18:12;96615.97;;;1.53;77.16
10992;BME280;5549;47.028;15.514;2023-12-07T05:20:40;96618.13;;;1.63;76.70
10992;BME280;5549;47.028;15.514;2023-12-07T05:23:10;96623.59;;;1.56;76.40
10992;BME280;5549;47.028;15.514;2023-12-07T05:25:38;96626.56;;;1.30;77.12
10992;BME280;5549;47.028;15.514;2023-12-07T05:28:06;96641.38;;;1.45;76.95
10992;BME280;5549;47.028;15.514;2023-12-07T05:30:36;96641.78;;;1.55;76.79
10992;BME280;5549;47.028;15.514;2023-12-07T05:33:04;96641.56;;;1.59;76.65
10992;BME280;5549;47.028;15.514;2023-12-07T05:35:33;96644.28;;;1.56;76.73
10992;BME280;5549;47.028;15.514;2023-12-07T05:38:01;96651.28;;;1.54;76.94
10992;BME280;5549;47.028;15.514;2023-12-07T05:40:30;96643.03;;;1.65;76.96
10992;BME280;5549;47.028;15.514;2023-12-07T05:42:59;96646.44;;;1.66;76.79
10992;BME280;5549;47.028;15.514;2023-12-07T05:45:27;96642.63;;;1.74;76.91
10992;BME280;5549;47.028;15.514;2023-12-07T05:47:54;96645.53;;;1.67;76.60
10992;BME280;5549;47.028;15.514;2023-12-07T05:50:22;96647.22;;;1.68;76.86
10992;BME280;5549;47.028;15.514;2023-12-07T05:52:52;96652.91;;;1.38;76.76
10992;BME280;5549;47.028;15.514;2023-12-07T05:55:21;96654.03;;;1.51;77.04
10992;BME280;5549;47.028;15.514;2023-12-07T05:57:50;96666.06;;;1.52;77.20
10992;BME280;5549;47.028;15.514;2023-12-07T06:00:19;96658.97;;;1.56;77.09
10992;BME280;5549;47.028;15.514;2023-12-07T06:02:48;96654.34;;;1.63;76.54
10992;BME280;5549;47.028;15.514;2023-12-07T06:05:15;96650.22;;;1.58;77.02
10992;BME280;5549;47.028;15.514;2023-12-07T06:07:43;96650.72;;;1.67;76.56
10992;BME280;5549;47.028;15.514;2023-12-07T06:10:14;96655.22;;;1.44;76.89
10992;BME280;5549;47.028;15.514;2023-12-07T06:12:43;96657.59;;;1.49;77.32
10992;BME280;5549;47.028;15.514;2023-12-07T06:15:10;96662.06;;;1.45;76.99
10992;BME280;5549;47.028;15.514;2023-12-07T06:17:38;96659.75;;;1.39;76.96
10992;BME280;5549;47.028;15.514;2023-12-07T06:20:07;96659.75;;;1.39;77.22
10992;BME280;5549;47.028;15.514;2023-12-07T06:22:35;96667.38;;;1.42;77.18
10992;BME280;5549;47.028;15.514;2023-12-07T06:25:04;96668.50;;;1.55;76.84
10992;BME280;5549;47.028;15.514;2023-12-07T06:27:33;96671.56;;;1.64;76.22
10992;BME280;5549;47.028;15.514;2023-12-07T06:30:02;96672.22;;;1.50;77.14
10992;BME280;5549;47.028;15.514;2023-12-07T06:32:32;96670.25;;;1.55;76.07
10992;BME280;5549;47.028;15.514;2023-12-07T06:35:00;96678.63;;;1.60;76.02
10992;BME280;5549;47.028;15.514;2023-12-07T06:37:27;96676.88;;;1.60;75.76
10992;BME280;5549;47.028;15.514;2023-12-07T06:39:55;96679.75;;;1.54;76.11
10992;BME280;5549;47.028;15.514;2023-12-07T06:42:22;96674.38;;;1.59;75.59
10992;BME280;5549;47.028;15.514;2023-12-07T06:44:51;96674.59;;;1.36;76.38
10992;BME280;5549;47.028;15.514;2023-12-07T06:47:18;96675.06;;;1.44;75.65
10992;BME280;5549;47.028;15.514;2023-12-07T06:49:46;96676.63;;;1.48;75.51
10992;BME280;5549;47.028;15.514;2023-12-07T06:52:16;96680.53;;;1.19;77.32
10992;BME280;5549;47.028;15.514;2023-12-07T06:54:43;96687.38;;;1.39;76.58
10992;BME280;5549;47.028;15.514;2023-12-07T06:57:11;96680.25;;;1.44;76.89
10992;BME280;5549;47.028;15.514;2023-12-07T06:59:39;96684.97;;;1.72;76.98
10992;BME280;5549;47.028;15.514;2023-12-07T07:02:08;96678.09;;;2.08;76.14
10992;BME280;5549;47.028;15.514;2023-12-07T07:04:36;96684.94;;;2.09;76.72
10992;BME280;5549;47.028;15.514;2023-12-07T07:07:03;96687.22;;;2.67;74.85
10992;BME280;5549;47.028;15.514;2023-12-07T07:09:31;96689.00;;;3.00;73.83
10992;BME280;5549;47.028;15.514;2023-12-07T07:11:59;96686.38;;;3.17;72.82
10992;BME280;5549;47.028;15.514;2023-12-07T07:14:27;96682.88;;;3.34;71.79
10992;BME280;5549;47.028;15.514;2023-12-07T07:16:54;96686.91;;;3.39;71.76
10992;BME280;5549;47.028;15.514;2023-12-07T07:19:23;96689.63;;;3.53;71.09
10992;BME280;5549;47.028;15.514;2023-12-07T07:21:50;96681.50;;;3.60;71.02
10992;BME280;5549;47.028;15.514;2023-12-07T07:24:18;96683.16;;;4.38;77.40
10992;BME280;5549;47.028;15.514;2023-12-07T07:26:45;96679.13;;;5.21;80.42
10992;BME280;5549;47.028;15.514;2023-12-07T07:29:13;96673.56;;;5.96;80.41
10992;BME280;5549;47.028;15.514;2023-12-07T07:31:40;96680.00;;;6.57;77.34
10992;BME280;5549;47.028;15.514;2023-12-07T07:34:08;96684.03;;;7.14;74.25
10992;BME280;5549;47.028;15.514;2023-12-07T07:37:01;96679.59;;;7.65;70.93
10992;BME280;5549;47.028;15.514;2023-12-07T07:39:29;96679.91;;;7.97;67.74
10992;BME280;5549;47.028;15.514;2023-12-07T07:42:21;96682.19;;;8.38;65.73
10992;BME280;5549;47.028;15.514;2023-12-07T07:44:48;96686.56;;;8.61;63.52
10992;BME280;5549;47.028;15.514;2023-12-07T07:47:40;96682.38;;;8.94;61.78
10992;BME280;5549;47.028;15.514;2023-12-07T07:50:13;96677.78;;;9.20;60.23
10992;BME280;5549;47.028;15.514;2023-12-07T07:52:42;96683.63;;;9.46;58.98
10992;BME280;5549;47.028;15.514;2023-12-07T07:55:12;96689.34;;;9.51;57.46
10992;BME280;5549;47.028;15.514;2023-12-07T07:57:40;96680.19;;;9.68;57.43
10992;BME280;5549;47.028;15.514;2023-12-07T08:00:10;96680.88;;;9.81;55.82
10992;BME280;5549;47.028;15.514;2023-12-07T08:02:40;96682.97;;;10.09;56.00
10992;BME280;5549;47.028;15.514;2023-12-07T08:05:07;96685.19;;;10.36;55.17
10992;BME280;5549;47.028;15.514;2023-12-07T08:07:35;96682.34;;;10.71;53.73
10992;BME280;5549;47.028;15.514;2023-12-07T08:10:06;96681.75;;;11.09;53.99
10992;BME280;5549;47.028;15.514;2023-12-07T08:12:35;96679.88;;;11.42;53.16
10992;BME280;5549;47.028;15.514;2023-12-07T08:15:10;96686.09;;;11.71;51.18
10992;BME280;5549;47.028;15.514;2023-12-07T08:17:38;96682.31;;;11.95;50.55
10992;BME280;5549;47.028;15.514;2023-12-07T08:20:10;96685.03;;;12.14;50.46
10992;BME280;5549;47.028;15.514;2023-12-07T08:22:38;96687.97;;;12.30;50.10
10992;BME280;5549;47.028;15.514;2023-12-07T08:25:10;96679.94;;;12.32;49.43
10992;BME280;5549;47.028;15.514;2023-12-07T08:27:39;96679.94;;;12.41;48.03
10992;BME280;5549;47.028;15.514;2023-12-07T08:30:09;96683.81;;;12.37;49.45
10992;BME280;5549;47.028;15.514;2023-12-07T08:32:37;96691.31;;;12.42;48.44
10992;BME280;5549;47.028;15.514;2023-12-07T08:35:09;96693.66;;;12.55;47.58
10992;BME280;5549;47.028;15.514;2023-12-07T08:37:37;96698.66;;;12.58;47.51
10992;BME280;5549;47.028;15.514;2023-12-07T08:40:08;96700.88;;;12.43;44.90
10992;BME280;5549;47.028;15.514;2023-12-07T08:42:38;96700.16;;;12.22;45.12
10992;BME280;5549;47.028;15.514;2023-12-07T08:45:06;96710.19;;;12.07;44.32
10992;BME280;5549;47.028;15.514;2023-12-07T08:47:37;96705.94;;;11.54;45.11
10992;BME280;5549;47.028;15.514;2023-12-07T08:50:29;96712.13;;;11.44;46.65
10992;BME280;5549;47.028;15.514;2023-12-07T08:52:56;96711.03;;;10.63;46.43
10992;BME280;5549;47.028;15.514;2023-12-07T08:55:25;96712.72;;;10.53;47.57
10992;BME280;5549;47.028;15.514;2023-12-07T08:57:54;96719.34;;;10.25;48.07
10992;BME280;5549;47.028;15.514;2023-12-07T09:00:22;96724.56;;;10.36;49.28
10992;BME280;5549;47.028;15.514;2023-12-07T09:02:51;96728.97;;;10.47;50.40
10992;BME280;5549;47.028;15.514;2023-12-07T09:05:19;96735.56;;;10.19;49.31
10992;BME280;5549;47.028;15.514;2023-12-07T09:07:47;96735.34;;;10.22;49.48
10992;BME280;5549;47.028;15.514;2023-12-07T09:10:14;96745.72;;;9.79;50.55
10992;BME280;5549;47.028;15.514;2023-12-07T09:12:46;96745.50;;;9.93;52.65
10992;BME280;5549;47.028;15.514;2023-12-07T09:15:13;96753.00;;;9.86;52.20
10992;BME280;5549;47.028;15.514;2023-12-07T09:17:43;96750.97;;;9.90;52.67
10992;BME280;5549;47.028;15.514;2023-12-07T09:20:11;96750.25;;;10.10;52.07
10992;BME280;5549;47.028;15.514;2023-12-07T09:22:42;96750.00;;;10.24;51.71
10992;BME280;5549;47.028;15.514;2023-12-07T09:25:11;96744.75;;;10.36;51.97
10992;BME280;5549;47.028;15.514;2023-12-07T09:27:39;96743.16;;;10.55;50.96
10992;BME280;5549;47.028;15.514;2023-12-07T09:30:10;96744.25;;;10.53;49.73
10992;BME280;5549;47.028;15.514;2023-12-07T09:32:39;96740.56;;;10.44;48.16
10992;BME280;5549;47.028;15.514;2023-12-07T09:35:08;96744.69;;;10.58;47.89
10992;BME280;5549;47.028;15.514;2023-12-07T09:37:41;96731.66;;;10.68;48.32
10992;BME280;5549;47.028;15.514;2023-12-07T09:40:14;96731.16;;;10.31;46.98
10992;BME280;5549;47.028;15.514;2023-12-07T09:42:42;96733.03;;;10.40;46.03
10992;BME280;5549;47.028;15.514;2023-12-07T09:45:11;96732.69;;;10.44;45.72
10992;BME280;5549;47.028;15.514;2023-12-07T09:47:40;96740.00;;;9.85;45.53
10992;BME280;5549;47.028;15.514;2023-12-07T09:50:09;96739.88;;;9.64;45.41
10992;BME280;5549;47.028;15.514;2023-12-07T09:52:38;96735.34;;;9.77;46.07
10992;BME280;5549;47.028;15.514;2023-12-07T09:55:07;96739.16;;;9.51;44.75
10992;BME280;5549;47.028;15.514;2023-12-07T09:57:37;96730.69;;;9.92;45.85
10992;BME280;5549;47.028;15.514;2023-12-07T10:00:06;96726.03;;;10.07;44.71
10992;BME280;5549;47.028;15.514;2023-12-07T10:02:38;96725.56;;;9.90;44.10
10992;BME280;5549;47.028;15.514;2023-12-07T10:05:09;96718.69;;;9.67;44.97
10992;BME280;5549;47.028;15.514;2023-12-07T10:07:39;96718.06;;;9.86;44.25
10992;BME280;5549;47.028;15.514;2023-12-07T10:10:08;96713.31;;;9.57;43.81
10992;BME280;5549;47.028;15.514;2023-12-07T10:12:46;96718.06;;;9.63;44.15
10992;BME280;5549;47.028;15.514;2023-12-07T10:15:16;96725.94;;;9.52;44.58
10992;BME280;5549;47.028;15.514;2023-12-07T10:17:48;96713.53;;;9.77;45.40
10992;BME280;5549;47.028;15.514;2023-12-07T10:20:17;96708.66;;;9.72;44.53
10992;BME280;5549;47.028;15.514;2023-12-07T10:22:46;96710.78;;;10.01;43.27
10992;BME280;5549;47.028;15.514;2023-12-07T10:25:13;96707.41;;;10.32;43.65
10992;BME280;5549;47.028;15.514;2023-12-07T10:27:44;96711.34;;;10.70;43.67
10992;BME280;5549;47.028;15.514;2023-12-07T10:30:12;96706.31;;;11.19;42.86
10992;BME280;5549;47.028;15.514;2023-12-07T10:32:40;96697.63;;;11.49;41.34
10992;BME280;5549;47.028;15.514;2023-12-07T10:35:09;96706.16;;;11.42;39.45
10992;BME280;5549;47.028;15.514;2023-12-07T10:37:37;96701.25;;;11.28;40.09
10992;BME280;5549;47.028;15.514;2023-12-07T10:40:06;96697.97;;;11.35;38.73
10992;BME280;5549;47.028;15.514;2023-12-07T10:42:34;96705.13;;;10.39;38.33
10992;BME280;5549;47.028;15.514;2023-12-07T10:45:06;96704.44;;;10.14;38.65
10992;BME280;5549;47.028;15.514;2023-12-07T10:47:38;96704.03;;;10.52;39.59
10992;BME280;5549;47.028;15.514;2023-12-07T10:50:09;96704.06;;;10.73;39.33
10992;BME280;5549;47.028;15.514;2023-12-07T10:52:45;96704.63;;;10.77;39.55
10992;BME280;5549;47.028;15.514;2023-12-07T10:55:18;96713.81;;;10.50;38.41
10992;BME280;5549;47.028;15.514;2023-12-07T10:57:48;96708.81;;;10.47;39.25
10992;BME280;5549;47.028;15.514;2023-12-07T11:00:16;96707.41;;;10.43;40.00
10992;BME280;5549;47.028;15.514;2023-12-07T11:02:46;96705.22;;;10.80;39.25
10992;BME280;5549;47.028;15.514;2023-12-07T11:05:15;96707.03;;;11.01;38.29
10992;BME280;5549;47.028;15.514;2023-12-07T11:07:57;96704.34;;;11.12;38.05
10992;BME280;5549;47.028;15.514;2023-12-07T11:10:36;96699.97;;;11.01;37.59
10992;BME280;5549;47.028;15.514;2023-12-07T11:13:13;96691.94;;;10.82;37.21
10992;BME280;5549;47.028;15.514;2023-12-07T11:15:42;96706.97;;;10.59;36.81
10992;BME280;5549;47.028;15.514;2023-12-07T11:18:11;96709.06;;;10.44;38.04
10992;BME280;5549;47.028;15.514;2023-12-07T11:20:43;96703.56;;;10.36;37.67
10992;BME280;5549;47.028;15.514;2023-12-07T11:23:12;96702.81;;;10.56;36.85
10992;BME280;5549;47.028;15.514;2023-12-07T11:25:43;96706.91;;;10.49;36.81
10992;BME280;5549;47.028;15.514;2023-12-07T11:28:12;96705.94;;;10.50;37.56
10992;BME280;5549;47.028;15.514;2023-12-07T11:30:43;96703.88;;;10.86;38.22
10992;BME280;5549;47.028;15.514;2023-12-07T11:33:12;96708.16;;;11.29;37.81
10992;BME280;5549;47.028;15.514;2023-12-07T11:36:07;96707.72;;;11.23;35.83
10992;BME280;5549;47.028;15.514;2023-12-07T11:38:36;96708.09;;;11.40;36.48
10992;BME280;5549;47.028;15.514;2023-12-07T11:41:04;96700.88;;;11.63;36.14
10992;BME280;5549;47.028;15.514;2023-12-07T11:43:42;96705.59;;;11.38;35.90
10992;BME280;5549;47.028;15.514;2023-12-07T11:46:13;96710.19;;;11.76;36.53
10992;BME280;5549;47.028;15.514;2023-12-07T11:48:47;96716.63;;;11.32;35.47
10992;BME280;5549;47.028;15.514;2023-12-07T11:51:17;96709.13;;;11.28;36.15
10992;BME280;5549;47.028;15.514;2023-12-07T11:53:45;96703.28;;;11.45;35.25
10992;BME280;5549;47.028;15.514;2023-12-07T11:56:14;96709.50;;;10.81;34.79
10992;BME280;5549;47.028;15.514;2023-12-07T11:58:47;96704.72;;;11.07;35.45
10992;BME280;5549;47.028;15.514;2023-12-07T12:01:16;96693.56;;;11.76;36.62
10992;BME280;5549;47.028;15.514;2023-12-07T12:03:44;96695.66;;;11.42;35.36
10992;BME280;5549;47.028;15.514;2023-12-07T12:06:11;96705.22;;;11.01;35.09
10992;BME280;5549;47.028;15.514;2023-12-07T12:08:41;96705.78;;;11.25;34.83
10992;BME280;5549;47.028;15.514;2023-12-07T12:11:09;96708.22;;;10.76;34.94
10992;BME280;5549;47.028;15.514;2023-12-07T12:13:36;96704.84;;;10.85;35.59
10992;BME280;5549;47.028;15.514;2023-12-07T12:16:07;96690.34;;;10.90;34.98
10992;BME280;5549;47.028;15.514;2023-12-07T12:18:37;96698.56;;;10.76;35.19
10992;BME280;5549;47.028;15.514;2023-12-07T12:21:07;96700.94;;;10.36;35.98
10992;BME280;5549;47.028;15.514;2023-12-07T12:23:35;96699.09;;;9.93;36.50
10992;BME280;5549;47.028;15.514;2023-12-07T12:26:06;96699.13;;;9.71;35.61
10992;BME280;5549;47.028;15.514;2023-12-07T12:28:36;96705.19;;;9.94;36.63
10992;BME280;5549;47.028;15.514;2023-12-07T12:31:09;96704.13;;;9.63;36.12
10992;BME280;5549;47.028;15.514;2023-12-07T12:33:37;96693.09;;;10.14;36.51
10992;BME280;5549;47.028;15.514;2023-12-07T12:36:08;96695.72;;;10.14;35.00
10992;BME280;5549;47.028;15.514;2023-12-07T12:38:37;96690.59;;;10.12;36.37
10992;BME280;5549;47.028;15.514;2023-12-07T12:41:06;96697.03;;;10.31;36.28
10992;BME280;5549;47.028;15.514;2023-12-07T12:43:34;96707.72;;;9.73;36.95
10992;BME280;5549;47.028;15.514;2023-12-07T12:46:02;96707.94;;;9.70;36.44
10992;BME280;5549;47.028;15.514;2023-12-07T12:48:30;96709.84;;;9.46;36.96
10992;BME280;5549;47.028;15.514;2023-12-07T12:50:58;96711.13;;;10.07;36.62
10992;BME280;5549;47.028;15.514;2023-12-07T12:53:34;96697.16;;;10.07;36.18
10992;BME280;5549;47.028;15.514;2023-12-07T12:56:02;96706.47;;;10.00;35.94
10992;BME280;5549;47.028;15.514;2023-12-07T12:58:31;96705.91;;;9.62;35.71
10992;BME280;5549;47.028;15.514;2023-12-07T13:00:59;96718.78;;;9.54;36.91
10992;BME280;5549;47.028;15.514;2023-12-07T13:03:30;96710.22;;;9.75;37.17
10992;BME280;5549;47.028;15.514;2023-12-07T13:05:58;96721.75;;;9.94;36.30
10992;BME280;5549;47.028;15.514;2023-12-07T13:08:26;96714.13;;;9.47;35.82
10992;BME280;5549;47.028;15.514;2023-12-07T13:10:53;96713.75;;;9.18;37.01
10992;BME280;5549;47.028;15.514;2023-12-07T13:13:21;96712.53;;;8.99;37.32
10992;BME280;5549;47.028;15.514;2023-12-07T13:15:50;96711.47;;;9.02;36.79
10992;BME280;5549;47.028;15.514;2023-12-07T13:18:20;96716.50;;;9.16;37.09
10992;BME280;5549;47.028;15.514;2023-12-07T13:20:47;96714.34;;;9.10;36.66
10992;BME280;5549;47.028;15.514;2023-12-07T13:23:15;96714.13;;;9.36;37.16